createdAt,value
2022-09-01T00:00:33.547Z,98597.17
2022-09-01T00:03:38.316Z,98597.16
2022-09-01T00:06:40.282Z,98593.51
2022-09-01T00:09:41.881Z,98593.40
2022-09-01T00:12:44.850Z,98592.16
2022-09-01T00:15:46.510Z,98590.73
2022-09-01T00:18:51.874Z,98588.36
2022-09-01T00:21:53.446Z,98587.71
2022-09-01T00:24:56.060Z,98590.27
2022-09-01T00:27:59.730Z,98589.81
2022-09-01T00:31:02.382Z,98593.14
2022-09-01T00:34:04.632Z,98593.46
2022-09-01T00:37:06.347Z,98590.42
2022-09-01T00:40:11.087Z,98592.29
2022-09-01T00:43:20.550Z,98600.32
2022-09-01T00:46:29.441Z,98594.95
2022-09-01T00:49:37.599Z,98594.89
2022-09-01T00:52:44.643Z,98593.92
2022-09-01T00:55:46.229Z,98595.04
2022-09-01T00:58:48.361Z,98592.76
2022-09-01T01:01:50.323Z,98596.06
2022-09-01T01:04:55.395Z,98595.77
2022-09-01T01:07:57.063Z,98595.84
2022-09-01T01:11:04.134Z,98595.77
2022-09-01T01:14:11.524Z,98594.83
2022-09-01T01:17:13.109Z,98593.27
2022-09-01T01:20:37.443Z,98590.84
2022-09-01T01:23:57.194Z,98591.91
2022-09-01T01:26:59.539Z,98592.30
2022-09-01T01:30:07.286Z,98591.05
2022-09-01T01:33:11.599Z,98589.08
2022-09-01T01:36:15.976Z,98587.83
2022-09-01T01:39:22.073Z,98582.77
2022-09-01T01:42:24.532Z,98582.39
2022-09-01T01:45:27.058Z,98580.49
2022-09-01T01:48:33.870Z,98579.95
2022-09-01T01:51:36.410Z,98576.45
2022-09-01T01:54:38.334Z,98573.15
2022-09-01T01:57:41.135Z,98575.54
2022-09-01T02:00:43.953Z,98581.88
2022-09-01T02:03:45.615Z,98576.58
2022-09-01T02:06:49.271Z,98574.20
2022-09-01T02:09:51.675Z,98573.66
2022-09-01T02:12:53.358Z,98568.30
2022-09-01T02:15:57.572Z,98571.87
2022-09-01T02:19:01.234Z,98572.35
2022-09-01T02:22:02.995Z,98569.13
2022-09-01T02:25:05.762Z,98570.97
2022-09-01T02:28:09.516Z,98568.75
2022-09-01T02:31:12.125Z,98568.36
2022-09-01T02:34:14.304Z,98569.48
2022-09-01T02:37:16.090Z,98574.23
2022-09-01T02:40:17.881Z,98574.16
2022-09-01T02:43:20.571Z,98569.98
2022-09-01T02:46:22.891Z,98572.36
2022-09-01T02:49:28.038Z,98571.36
2022-09-01T02:52:34.903Z,98570.36
2022-09-01T02:55:39.079Z,98572.45
2022-09-01T02:58:46.233Z,98571.70
2022-09-01T03:01:53.255Z,98571.97
2022-09-01T03:04:55.297Z,98568.36
2022-09-01T03:08:00.667Z,98570.38
2022-09-01T03:11:02.376Z,98565.67
2022-09-01T03:14:06.993Z,98566.41
2022-09-01T03:17:08.595Z,98565.58
2022-09-01T03:20:10.564Z,98564.26
2022-09-01T03:23:19.491Z,98563.73
2022-09-01T03:26:23.169Z,98565.80
2022-09-01T03:29:24.888Z,98565.11
2022-09-01T03:32:26.478Z,98566.38
2022-09-01T03:35:31.262Z,98566.00
2022-09-01T03:38:33.630Z,98568.14
2022-09-01T03:41:37.418Z,98568.31
2022-09-01T03:44:40.403Z,98564.51
2022-09-01T03:47:42.810Z,98567.21
2022-09-01T03:50:45.681Z,98565.09
2022-09-01T03:53:48.382Z,98564.95
2022-09-01T03:56:50.201Z,98566.06
2022-09-01T03:59:53.607Z,98569.87
2022-09-01T04:02:58.770Z,98576.12
2022-09-01T04:06:01.795Z,98572.58
2022-09-01T04:09:03.707Z,98578.45
2022-09-01T04:12:08.369Z,98578.86
2022-09-01T04:15:13.921Z,98576.65
2022-09-01T04:18:20.860Z,98580.30
2022-09-01T04:21:23.627Z,98573.42
2022-09-01T04:24:30.399Z,98576.13
2022-09-01T04:27:33.215Z,98582.08
2022-09-01T04:30:36.206Z,98579.55
2022-09-01T04:33:39.284Z,98581.91
2022-09-01T04:36:44.190Z,98582.08
2022-09-01T04:39:55.598Z,98583.09
2022-09-01T04:42:57.961Z,98588.63
2022-09-01T04:46:00.352Z,98589.59
2022-09-01T04:49:07.538Z,98588.47
2022-09-01T04:52:15.008Z,98587.44
2022-09-01T04:55:16.880Z,98587.52
2022-09-01T04:58:19.121Z,98586.73
2022-09-01T05:01:24.421Z,98586.16
2022-09-01T05:04:33.163Z,98587.83
2022-09-01T05:07:37.336Z,98591.14
2022-09-01T05:10:41.613Z,98589.74
2022-09-01T05:13:56.965Z,98586.81
2022-09-01T05:16:58.574Z,98588.21
2022-09-01T05:20:01.641Z,98589.05
2022-09-01T05:23:04.465Z,98588.56
2022-09-01T05:26:16.491Z,98587.71
2022-09-01T05:29:18.433Z,98581.80
2022-09-01T05:32:25.329Z,98583.23
2022-09-01T05:35:32.917Z,98583.71
2022-09-01T05:38:34.949Z,98584.34
2022-09-01T05:41:36.631Z,98580.56
2022-09-01T05:44:43.556Z,98576.95
2022-09-01T05:47:46.087Z,98579.23
2022-09-01T05:50:49.021Z,98583.40
2022-09-01T05:53:52.189Z,98585.53
2022-09-01T05:57:08.205Z,98586.23
2022-09-01T06:00:20.493Z,98590.16
2022-09-01T06:03:24.245Z,98591.48
2022-09-01T06:06:28.170Z,98596.10
2022-09-01T06:09:29.978Z,98595.52
2022-09-01T06:12:33.786Z,98602.52
2022-09-01T06:15:40.744Z,98605.89
2022-09-01T06:18:43.172Z,98599.70
2022-09-01T06:21:44.948Z,98599.72
2022-09-01T06:24:53.312Z,98595.20
2022-09-01T06:27:58.108Z,98598.79
2022-09-01T06:31:06.202Z,98599.52
2022-09-01T06:34:10.072Z,98603.08
2022-09-01T06:37:12.657Z,98608.71
2022-09-01T06:40:17.297Z,98613.54
2022-09-01T06:43:19.699Z,98617.44
2022-09-01T06:46:30.893Z,98618.05
2022-09-01T06:49:36.367Z,98616.14
2022-09-01T06:56:14.085Z,98624.79
2022-09-01T06:59:17.361Z,98629.45
2022-09-01T07:02:26.623Z,98627.85
2022-09-01T07:18:44.849Z,98638.23
2022-09-01T07:23:03.636Z,98636.23
2022-09-01T07:26:02.892Z,98641.27
2022-09-01T07:29:12.382Z,98640.88
2022-09-01T07:35:39.387Z,98646.94
2022-09-01T07:50:11.356Z,98649.58
2022-09-01T07:53:01.351Z,98650.20
2022-09-01T07:56:10.628Z,98649.11
2022-09-01T07:59:17.764Z,98644.10
2022-09-01T08:02:24.984Z,98642.61
2022-09-01T08:05:28.315Z,98641.91
2022-09-01T08:08:30.463Z,98646.81
2022-09-01T08:12:00.999Z,98649.33
2022-09-01T08:18:17.477Z,98642.92
2022-09-01T08:21:22.813Z,98650.52
2022-09-01T08:24:37.421Z,98652.29
2022-09-01T08:27:39.040Z,98651.89
2022-09-01T08:30:42.249Z,98649.98
2022-09-01T08:33:54.693Z,98650.09
2022-09-01T08:36:56.282Z,98649.31
2022-09-01T08:39:58.076Z,98650.17
2022-09-01T08:43:25.173Z,98645.47
2022-09-01T08:46:38.522Z,98647.38
2022-09-01T08:49:45.078Z,98653.66
2022-09-01T08:53:09.994Z,98653.86
2022-09-01T08:56:13.095Z,98651.73
2022-09-01T08:59:15.640Z,98648.50
2022-09-01T09:03:19.855Z,98641.27
2022-09-01T09:06:29.311Z,98645.67
2022-09-01T09:09:53.994Z,98643.48
2022-09-01T09:13:16.018Z,98642.27
2022-09-01T09:16:25.700Z,98643.70
2022-09-01T09:19:38.980Z,98644.27
2022-09-01T09:22:42.481Z,98645.33
2022-09-01T09:25:44.112Z,98639.27
2022-09-01T09:28:49.394Z,98633.35
2022-09-01T09:32:06.930Z,98634.02
2022-09-01T09:35:32.468Z,98633.17
2022-09-01T09:38:33.997Z,98632.66
2022-09-01T09:41:39.829Z,98632.75
2022-09-01T09:44:48.993Z,98634.29
2022-09-01T09:47:51.951Z,98635.84
2022-09-01T09:50:53.563Z,98629.31
2022-09-01T09:54:14.366Z,98635.93
2022-09-01T09:57:17.828Z,98637.96
2022-09-01T10:00:23.883Z,98633.79
2022-09-01T10:03:41.648Z,98629.98
2022-09-01T10:06:45.441Z,98626.45
2022-09-01T10:09:49.093Z,98629.10
2022-09-01T10:12:55.039Z,98630.56
2022-09-01T10:16:00.446Z,98635.84
2022-09-01T10:19:12.644Z,98637.01
2022-09-01T10:22:15.230Z,98636.39
2022-09-01T10:25:20.437Z,98635.21
2022-09-01T10:28:23.905Z,98631.40
2022-09-01T10:31:29.558Z,98629.43
2022-09-01T10:34:38.383Z,98631.51
2022-09-01T10:37:41.563Z,98625.34
2022-09-01T10:40:49.641Z,98626.25
2022-09-01T10:43:51.672Z,98625.16
2022-09-01T10:46:59.837Z,98627.31
2022-09-01T10:50:22.786Z,98626.16
2022-09-01T10:53:34.061Z,98622.64
2022-09-01T10:56:52.038Z,98620.65
2022-09-01T10:59:57.372Z,98619.73
2022-09-01T11:06:42.353Z,98614.73
2022-09-01T11:10:11.738Z,98620.69
2022-09-01T11:13:28.782Z,98616.59
2022-09-01T11:16:51.647Z,98611.41
2022-09-01T11:19:55.563Z,98612.92
2022-09-01T11:23:04.967Z,98612.93
2022-09-01T11:26:31.930Z,98620.92
2022-09-01T11:29:55.725Z,98617.48
2022-09-01T11:33:15.723Z,98614.63
2022-09-01T11:36:18.309Z,98611.60
2022-09-01T11:39:22.577Z,98616.73
2022-09-01T11:42:43.888Z,98608.67
2022-09-01T11:46:06.428Z,98605.09
2022-09-01T11:49:26.257Z,98613.73
2022-09-01T11:52:35.266Z,98615.59
2022-09-01T11:55:48.972Z,98614.36
2022-09-01T11:58:51.075Z,98615.95
2022-09-01T12:01:57.578Z,98614.47
2022-09-01T12:05:01.701Z,98611.92
2022-09-01T12:08:13.311Z,98607.50
2022-09-01T12:11:21.953Z,98603.36
2022-09-01T12:14:23.548Z,98594.45
2022-09-01T12:17:25.660Z,98600.02
2022-09-01T12:20:37.984Z,98599.27
2022-09-01T12:23:42.601Z,98593.77
2022-09-01T12:26:46.365Z,98589.73
2022-09-01T12:29:50.415Z,98591.38
2022-09-01T12:33:22.861Z,98584.71
2022-09-01T12:36:35.447Z,98585.45
2022-09-01T12:39:44.818Z,98583.98
2022-09-01T12:42:52.074Z,98588.02
2022-09-01T12:45:53.796Z,98589.15
2022-09-01T12:52:25.843Z,98587.20
2022-09-01T12:59:14.298Z,98590.45
2022-09-01T13:02:34.609Z,98590.98
2022-09-01T13:05:42.593Z,98588.78
2022-09-01T13:08:44.468Z,98587.41
2022-09-01T13:12:06.304Z,98587.89
2022-09-01T13:15:09.053Z,98595.38
2022-09-01T13:18:11.595Z,98597.11
2022-09-01T13:21:14.570Z,98591.42
2022-09-01T13:24:17.317Z,98588.95
2022-09-01T13:27:20.637Z,98584.80
2022-09-01T13:30:27.763Z,98590.48
2022-09-01T13:33:30.543Z,98598.17
2022-09-01T13:36:51.458Z,98595.20
2022-09-01T13:39:53.518Z,98595.69
2022-09-01T13:42:55.140Z,98589.02
2022-09-01T13:45:56.875Z,98590.67
2022-09-01T13:49:04.853Z,98591.47
2022-09-01T13:52:22.338Z,98588.08
2022-09-01T13:55:26.817Z,98584.67
2022-09-01T13:58:40.632Z,98583.54
2022-09-01T14:01:42.307Z,98586.66
2022-09-01T14:04:43.979Z,98586.17
2022-09-01T14:07:46.007Z,98588.14
2022-09-01T14:10:50.133Z,98584.10
2022-09-01T14:13:52.070Z,98588.03
2022-09-01T14:16:53.713Z,98584.07
2022-09-01T14:19:56.734Z,98582.89
2022-09-01T14:22:58.898Z,98589.02
2022-09-01T14:26:00.765Z,98595.15
2022-09-01T14:29:02.491Z,98592.97
2022-09-01T14:32:04.539Z,98595.19
2022-09-01T14:35:20.011Z,98593.70
2022-09-01T14:38:22.066Z,98589.20
2022-09-01T14:41:26.445Z,98594.04
2022-09-01T14:44:28.895Z,98585.41
2022-09-01T14:47:31.314Z,98583.89
2022-09-01T14:50:40.664Z,98578.92
2022-09-01T14:53:42.383Z,98576.20
2022-09-01T14:57:28.165Z,98573.74
2022-09-01T15:00:09.883Z,98572.86
2022-09-01T15:03:11.699Z,98575.30
2022-09-01T15:06:15.897Z,98581.59
2022-09-01T15:09:20.173Z,98589.55
2022-09-01T15:12:22.589Z,98592.05
2022-09-01T15:15:26.147Z,98590.65
2022-09-01T15:18:28.263Z,98589.36
2022-09-01T15:21:31.425Z,98586.38
2022-09-01T15:24:33.491Z,98586.25
2022-09-01T15:27:38.270Z,98587.61
2022-09-01T15:30:45.072Z,98586.54
2022-09-01T15:33:48.306Z,98588.02
2022-09-01T15:36:49.850Z,98583.38
2022-09-01T15:40:03.535Z,98581.40
2022-09-01T15:43:12.153Z,98578.52
2022-09-01T15:46:14.294Z,98576.66
2022-09-01T15:49:17.416Z,98569.92
2022-09-01T15:52:20.422Z,98573.58
2022-09-01T15:55:26.494Z,98578.17
2022-09-01T15:58:39.118Z,98579.94
2022-09-01T16:01:52.442Z,98580.48
2022-09-01T16:05:02.230Z,98576.95
2022-09-01T16:08:07.745Z,98578.61
2022-09-01T16:11:11.538Z,98578.48
2022-09-01T16:14:14.238Z,98581.86
2022-09-01T16:17:25.473Z,98583.88
2022-09-01T16:20:40.613Z,98588.09
2022-09-01T16:23:48.147Z,98587.38
2022-09-01T16:26:50.690Z,98589.86
2022-09-01T16:29:58.156Z,98591.92
2022-09-01T16:33:03.579Z,98591.73
2022-09-01T16:36:30.177Z,98598.77
2022-09-01T16:39:50.921Z,98599.21
2022-09-01T16:43:00.760Z,98604.55
2022-09-01T16:46:31.571Z,98607.42
2022-09-01T16:49:52.801Z,98609.41
2022-09-01T16:53:14.525Z,98605.25
2022-09-01T16:56:32.788Z,98604.94
2022-09-01T16:59:43.038Z,98607.93
2022-09-01T17:02:59.291Z,98610.73
2022-09-01T17:06:13.792Z,98612.00
2022-09-01T17:09:28.953Z,98614.85
2022-09-01T17:12:41.572Z,98617.09
2022-09-01T17:15:49.831Z,98617.55
2022-09-01T17:18:54.190Z,98622.71
2022-09-01T17:22:07.806Z,98622.30
2022-09-01T17:25:18.882Z,98626.36
2022-09-01T17:28:33.670Z,98624.94
2022-09-01T17:31:38.112Z,98624.27
2022-09-01T17:35:07.058Z,98630.85
2022-09-01T17:38:31.525Z,98632.66
2022-09-01T17:41:59.156Z,98639.28
2022-09-01T17:45:14.672Z,98632.58
2022-09-01T17:48:47.745Z,98631.25
2022-09-01T17:52:26.607Z,98636.63
2022-09-01T17:55:42.039Z,98643.02
2022-09-01T17:58:55.779Z,98644.95
2022-09-01T18:02:09.618Z,98645.72
2022-09-01T18:05:19.248Z,98649.67
2022-09-01T18:08:39.563Z,98652.67
2022-09-01T18:11:50.435Z,98658.05
2022-09-01T18:15:10.321Z,98659.48
2022-09-01T18:18:37.392Z,98664.75
2022-09-01T18:21:49.435Z,98666.05
2022-09-01T18:24:57.017Z,98663.30
2022-09-01T18:27:58.682Z,98671.84
2022-09-01T18:31:28.881Z,98675.05
2022-09-01T18:34:48.902Z,98678.11
2022-09-01T18:38:00.698Z,98676.87
2022-09-01T18:41:21.737Z,98678.60
2022-09-01T18:45:09.542Z,98679.13
2022-09-01T18:48:30.076Z,98679.41
2022-09-01T18:51:55.940Z,98684.02
2022-09-01T18:55:37.529Z,98684.91
2022-09-01T18:59:10.030Z,98685.61
2022-09-01T19:02:30.036Z,98683.66
2022-09-01T19:05:45.553Z,98686.96
2022-09-01T19:08:51.688Z,98688.91
2022-09-01T19:12:05.226Z,98696.45
2022-09-01T19:15:15.737Z,98694.86
2022-09-01T19:18:25.870Z,98693.20
2022-09-01T19:21:31.701Z,98695.55
2022-09-01T19:24:41.149Z,98694.20
2022-09-01T19:27:55.741Z,98699.44
2022-09-01T19:31:09.628Z,98697.49
2022-09-01T19:34:14.847Z,98701.29
2022-09-01T19:37:20.810Z,98702.43
2022-09-01T19:40:28.815Z,98705.27
2022-09-01T19:43:35.791Z,98704.58
2022-09-01T19:46:46.373Z,98703.40
2022-09-01T19:50:01.336Z,98704.09
2022-09-01T19:53:06.825Z,98703.05
2022-09-01T19:56:24.059Z,98706.34
2022-09-01T19:59:46.879Z,98703.00
2022-09-01T20:03:17.386Z,98710.27
2022-09-01T20:06:41.190Z,98703.86
2022-09-01T20:09:53.226Z,98709.67
2022-09-01T20:12:54.835Z,98711.81
2022-09-01T20:16:08.632Z,98713.62
2022-09-01T20:19:16.089Z,98719.48
2022-09-01T20:22:24.747Z,98722.45
2022-09-01T20:25:42.912Z,98720.20
2022-09-01T20:29:11.450Z,98716.48
2022-09-01T20:32:27.066Z,98714.54
2022-09-01T20:35:40.079Z,98710.11
2022-09-01T20:39:11.502Z,98711.41
2022-09-01T20:42:38.630Z,98710.67
2022-09-01T20:45:45.109Z,98704.75
2022-09-01T20:48:47.706Z,98708.17
2022-09-01T20:52:04.730Z,98713.84
2022-09-01T20:55:16.340Z,98714.16
2022-09-01T20:59:14.840Z,98709.48
2022-09-01T21:02:26.137Z,98712.06
2022-09-01T21:05:51.992Z,98710.04
2022-09-01T21:09:12.864Z,98715.76
2022-09-01T21:12:39.543Z,98717.14
2022-09-01T21:15:59.419Z,98721.84
2022-09-01T21:19:04.305Z,98721.19
2022-09-01T21:22:10.579Z,98721.14
2022-09-01T21:25:12.133Z,98719.02
2022-09-01T21:28:19.636Z,98719.63
2022-09-01T21:31:25.555Z,98719.29
2022-09-01T21:34:27.393Z,98717.73
2022-09-01T21:37:29.086Z,98717.46
2022-09-01T21:40:30.722Z,98719.88
2022-09-01T21:43:35.457Z,98717.70
2022-09-01T21:46:37.384Z,98717.82
2022-09-01T21:49:41.878Z,98718.81
2022-09-01T21:52:43.720Z,98718.77
2022-09-01T21:55:47.740Z,98717.32
2022-09-01T21:58:51.733Z,98719.66
2022-09-01T22:01:53.751Z,98720.06
2022-09-01T22:04:55.649Z,98715.30
2022-09-01T22:07:57.834Z,98717.71
2022-09-01T22:10:59.328Z,98717.23
2022-09-01T22:14:01.030Z,98717.93
2022-09-01T22:17:04.416Z,98716.50
2022-09-01T22:20:08.917Z,98715.84
2022-09-01T22:23:11.978Z,98714.23
2022-09-01T22:26:24.292Z,98715.86
2022-09-01T22:29:25.802Z,98712.27
2022-09-01T22:32:32.850Z,98712.44
2022-09-01T22:35:40.217Z,98715.42
2022-09-01T22:38:41.767Z,98713.74
2022-09-01T22:41:43.313Z,98715.27
2022-09-01T22:44:44.974Z,98715.95
2022-09-01T22:47:46.542Z,98716.46
2022-09-01T22:50:49.400Z,98715.48
2022-09-01T22:53:51.002Z,98715.04
2022-09-01T22:56:53.368Z,98712.48
2022-09-01T22:59:57.845Z,98709.98
2022-09-01T23:03:00.659Z,98704.41
2022-09-01T23:06:09.741Z,98701.84
2022-09-01T23:09:11.937Z,98700.21
2022-09-01T23:12:13.662Z,98704.05
2022-09-01T23:15:16.861Z,98703.78
2022-09-01T23:18:18.677Z,98703.42
2022-09-01T23:21:25.889Z,98704.02
2022-09-01T23:24:27.626Z,98706.88
2022-09-01T23:27:29.244Z,98706.64
2022-09-01T23:30:30.848Z,98704.60
2022-09-01T23:33:32.441Z,98701.98
2022-09-01T23:36:35.341Z,98701.85
2022-09-01T23:39:36.876Z,98698.77
2022-09-01T23:42:38.434Z,98700.61
2022-09-01T23:45:43.087Z,98698.50
2022-09-01T23:48:44.872Z,98695.66
2022-09-01T23:51:48.403Z,98696.71
2022-09-01T23:54:49.976Z,98693.56
2022-09-01T23:57:51.604Z,98695.58
